Time;durP1;ratioP1;P1;durP2;ratioP2;P2;SDS_P1;SDS_P2;PMS_P1;PMS_P2;Temp;Humidity;BMP_temperature;BMP_pressure;BME280_temperature;BME280_humidity;BME280_pressure;Samples;Min_cycle;Max_cycle;Signal;HPM_P1;HPM_P2
2022/03/26 00:01:24;;;;;;;42.03;31.83;;;;;;;;;;5031113;28;20514;-78
2022/03/26 00:03:51;;;;;;;42.23;31.73;;;;;;;;;;5031186;28;20511;-79
2022/03/26 00:06:18;;;;;;;40.50;30.80;;;;;;;;;;5031610;28;20435;-78
2022/03/26 00:08:48;;;;;;;39.50;28.77;;;;;;;;;;5031068;28;20478;-76
2022/03/26 00:11:16;;;;;;;38.63;29.57;;;;;;;;;;5031334;28;20446;-79
2022/03/26 00:13:43;;;;;;;41.70;29.30;;;;;;;;;;5031138;28;21003;-77
2022/03/26 00:16:10;;;;;;;40.43;30.23;;;;;;;;;;5031552;28;20813;-78
2022/03/26 00:18:38;;;;;;;37.83;29.80;;;;;;;;;;5031299;28;20434;-77
2022/03/26 00:21:05;;;;;;;37.30;28.97;;;;;;;;;;5031318;28;20541;-76
2022/03/26 00:23:32;;;;;;;45.30;29.73;;;;;;;;;;5030961;28;20462;-78
2022/03/26 00:26:00;;;;;;;41.40;30.63;;;;;;;;;;5031592;28;20495;-77
2022/03/26 00:28:28;;;;;;;42.60;30.13;;;;;;;;;;5032558;28;21024;-77
2022/03/26 00:30:55;;;;;;;41.23;30.60;;;;;;;;;;5031681;28;20934;-76
2022/03/26 00:33:22;;;;;;;41.10;31.27;;;;;;;;;;5030923;28;20565;-79
2022/03/26 00:35:49;;;;;;;38.20;29.27;;;;;;;;;;5031417;28;20803;-77
2022/03/26 00:38:16;;;;;;;35.97;28.20;;;;;;;;;;5031599;28;20469;-78
2022/03/26 00:40:43;;;;;;;39.33;28.73;;;;;;;;;;5032896;28;20438;-78
2022/03/26 00:43:12;;;;;;;35.17;28.00;;;;;;;;;;5032263;28;21034;-77
2022/03/26 00:45:39;;;;;;;43.73;31.07;;;;;;;;;;5033741;28;20816;-77
2022/03/26 00:48:06;;;;;;;38.27;29.87;;;;;;;;;;5035058;28;20474;-76
2022/03/26 00:50:34;;;;;;;39.90;28.93;;;;;;;;;;5035772;28;20786;-77
2022/03/26 00:53:01;;;;;;;43.83;29.80;;;;;;;;;;5034873;28;20528;-78
2022/03/26 00:55:28;;;;;;;37.80;28.93;;;;;;;;;;5036364;28;20985;-77
2022/03/26 00:57:55;;;;;;;40.40;30.40;;;;;;;;;;5036342;28;20462;-78
2022/03/26 01:00:23;;;;;;;37.70;30.00;;;;;;;;;;5035398;28;20508;-77
2022/03/26 01:02:50;;;;;;;37.50;28.70;;;;;;;;;;5036719;28;20470;-77
2022/03/26 01:05:17;;;;;;;38.97;28.33;;;;;;;;;;5037298;28;20430;-79
2022/03/26 01:07:46;;;;;;;38.93;28.90;;;;;;;;;;5034903;28;20967;-77
2022/03/26 01:10:13;;;;;;;39.77;29.10;;;;;;;;;;5034561;28;20980;-77
2022/03/26 01:12:40;;;;;;;40.60;29.20;;;;;;;;;;5034182;28;20895;-78
2022/03/26 01:15:08;;;;;;;43.70;28.50;;;;;;;;;;5034652;28;20469;-77
2022/03/26 01:17:37;;;;;;;44.23;29.37;;;;;;;;;;5034587;28;20438;-78
2022/03/26 01:20:05;;;;;;;40.47;30.13;;;;;;;;;;5034389;28;20946;-78
2022/03/26 01:22:32;;;;;;;38.17;28.77;;;;;;;;;;5033850;28;20492;-78
2022/03/26 01:24:59;;;;;;;38.63;29.50;;;;;;;;;;5034537;28;20446;-77
2022/03/26 01:27:26;;;;;;;40.60;29.37;;;;;;;;;;5034849;28;20565;-77
2022/03/26 01:29:53;;;;;;;36.40;27.77;;;;;;;;;;5034294;28;20474;-76
2022/03/26 01:32:20;;;;;;;31.33;26.63;;;;;;;;;;5034251;28;20451;-78
2022/03/26 01:34:49;;;;;;;36.87;28.90;;;;;;;;;;5033671;28;20543;-77
2022/03/26 01:37:16;;;;;;;35.33;28.13;;;;;;;;;;5034032;28;20453;-77
2022/03/26 01:39:43;;;;;;;34.47;27.47;;;;;;;;;;5034441;28;20873;-78
2022/03/26 01:42:11;;;;;;;42.93;29.40;;;;;;;;;;5034253;28;20600;-77
2022/03/26 01:44:39;;;;;;;35.93;27.87;;;;;;;;;;5033825;28;20566;-77
2022/03/26 01:47:06;;;;;;;39.10;28.50;;;;;;;;;;5033912;28;20449;-77
2022/03/26 01:49:34;;;;;;;38.30;27.53;;;;;;;;;;5033707;28;20478;-76
2022/03/26 01:52:03;;;;;;;41.53;28.50;;;;;;;;;;5033602;28;20930;-78
2022/03/26 01:54:30;;;;;;;36.50;28.87;;;;;;;;;;5033322;28;20477;-78
2022/03/26 01:56:57;;;;;;;36.57;29.10;;;;;;;;;;5033370;28;20508;-79
2022/03/26 01:59:25;;;;;;;37.97;30.43;;;;;;;;;;5033819;28;20438;-76
2022/03/26 02:01:52;;;;;;;40.07;29.57;;;;;;;;;;5033688;28;20458;-76
2022/03/26 02:04:19;;;;;;;40.00;28.77;;;;;;;;;;5033362;28;20573;-77
2022/03/26 02:06:46;;;;;;;36.43;27.07;;;;;;;;;;5034280;28;20443;-77
2022/03/26 02:09:15;;;;;;;37.57;28.13;;;;;;;;;;5033731;28;20482;-78
2022/03/26 02:11:44;;;;;;;38.60;28.30;;;;;;;;;;5033635;28;20442;-78
2022/03/26 02:14:11;;;;;;;37.60;28.60;;;;;;;;;;5033748;28;20466;-78
2022/03/26 02:16:39;;;;;;;38.23;28.57;;;;;;;;;;5033651;28;20443;-77
2022/03/26 02:19:07;;;;;;;41.33;28.67;;;;;;;;;;5033954;28;20481;-77
2022/03/26 02:21:35;;;;;;;40.60;28.73;;;;;;;;;;5033154;28;20938;-78
2022/03/26 02:24:03;;;;;;;40.00;27.80;;;;;;;;;;5032945;28;20870;-77
2022/03/26 02:26:31;;;;;;;37.10;27.80;;;;;;;;;;5033561;28;20477;-77
2022/03/26 02:28:59;;;;;;;39.33;27.30;;;;;;;;;;5033099;28;20577;-77
2022/03/26 02:31:27;;;;;;;33.90;26.30;;;;;;;;;;5032893;28;20450;-77
2022/03/26 02:33:54;;;;;;;33.63;26.93;;;;;;;;;;5032489;28;20886;-78
2022/03/26 02:36:21;;;;;;;36.40;27.97;;;;;;;;;;5032980;28;20525;-78
2022/03/26 02:38:50;;;;;;;38.60;28.00;;;;;;;;;;5033030;28;20447;-77
2022/03/26 02:41:17;;;;;;;37.97;28.07;;;;;;;;;;5032969;28;20446;-77
2022/03/26 02:43:44;;;;;;;38.47;28.30;;;;;;;;;;5032643;28;20474;-77
2022/03/26 02:46:11;;;;;;;34.10;26.60;;;;;;;;;;5033072;28;20442;-77
2022/03/26 02:48:39;;;;;;;36.87;27.10;;;;;;;;;;5032841;28;20478;-77
2022/03/26 02:51:07;;;;;;;34.40;26.07;;;;;;;;;;5032644;28;20451;-76
2022/03/26 02:53:34;;;;;;;38.50;27.50;;;;;;;;;;5032354;28;20557;-76
2022/03/26 02:56:02;;;;;;;33.33;26.60;;;;;;;;;;5032709;28;20447;-77
2022/03/26 02:58:29;;;;;;;37.30;26.73;;;;;;;;;;5032333;28;20458;-77
2022/03/26 03:00:57;;;;;;;38.07;27.63;;;;;;;;;;5032645;28;20446;-76
2022/03/26 03:03:24;;;;;;;38.27;27.77;;;;;;;;;;5032418;28;20470;-78
2022/03/26 03:05:52;;;;;;;35.67;26.93;;;;;;;;;;5032902;28;20877;-77
2022/03/26 03:08:19;;;;;;;34.37;26.27;;;;;;;;;;5032094;28;20447;-78
2022/03/26 03:10:46;;;;;;;37.03;28.87;;;;;;;;;;5031238;28;20524;-77
2022/03/26 03:13:14;;;;;;;32.60;25.07;;;;;;;;;;5031314;28;20884;-77
2022/03/26 03:15:43;;;;;;;40.60;27.50;;;;;;;;;;5032571;28;20473;-78
2022/03/26 03:18:10;;;;;;;39.00;27.77;;;;;;;;;;5034112;28;20546;-76
2022/03/26 03:20:37;;;;;;;33.40;25.37;;;;;;;;;;5037155;28;20442;-78
2022/03/26 03:23:05;;;;;;;38.93;27.83;;;;;;;;;;5036295;28;20490;-77
2022/03/26 03:25:32;;;;;;;38.77;26.60;;;;;;;;;;5037091;28;20831;-77
2022/03/26 03:27:59;;;;;;;38.23;27.80;;;;;;;;;;5037520;28;20454;-77
2022/03/26 03:30:28;;;;;;;36.77;26.47;;;;;;;;;;5036446;28;21208;-77
2022/03/26 03:32:56;;;;;;;35.30;25.73;;;;;;;;;;5034375;28;20486;-77
2022/03/26 03:35:23;;;;;;;32.50;25.27;;;;;;;;;;5032732;28;20442;-77
2022/03/26 03:37:50;;;;;;;35.17;25.87;;;;;;;;;;5031830;28;20537;-77
2022/03/26 03:40:17;;;;;;;40.50;27.37;;;;;;;;;;5031717;28;20446;-78
2022/03/26 03:42:44;;;;;;;34.70;25.37;;;;;;;;;;5031952;28;20459;-77
2022/03/26 03:45:12;;;;;;;38.83;24.70;;;;;;;;;;5032375;28;20442;-78
2022/03/26 03:47:40;;;;;;;33.20;24.47;;;;;;;;;;5032608;28;20438;-78
2022/03/26 03:50:08;;;;;;;31.87;24.17;;;;;;;;;;5032399;28;20887;-77
2022/03/26 03:52:35;;;;;;;35.33;26.37;;;;;;;;;;5032432;28;20504;-77
2022/03/26 03:55:02;;;;;;;30.23;24.07;;;;;;;;;;5033310;28;20453;-77
2022/03/26 03:57:29;;;;;;;34.93;25.80;;;;;;;;;;5035880;28;20489;-77
2022/03/26 03:59:56;;;;;;;30.60;24.33;;;;;;;;;;5039455;28;20443;-77
2022/03/26 04:02:23;;;;;;;35.60;26.17;;;;;;;;;;5038552;28;20455;-77
2022/03/26 04:04:51;;;;;;;32.67;24.63;;;;;;;;;;5038346;28;20450;-78
2022/03/26 04:07:18;;;;;;;34.80;25.67;;;;;;;;;;5038121;28;20442;-77
2022/03/26 04:09:45;;;;;;;36.50;25.50;;;;;;;;;;5037989;28;20486;-77
2022/03/26 04:12:12;;;;;;;34.53;25.03;;;;;;;;;;5037968;28;20438;-76
2022/03/26 04:14:43;;;;;;;35.20;24.87;;;;;;;;;;5033816;28;20464;-77
2022/03/26 04:17:10;;;;;;;40.43;25.47;;;;;;;;;;5031500;28;20878;-78
2022/03/26 04:19:38;;;;;;;37.40;26.53;;;;;;;;;;5031207;28;20442;-77
2022/03/26 04:22:07;;;;;;;35.70;26.00;;;;;;;;;;5031327;28;20537;-76
2022/03/26 04:24:35;;;;;;;34.67;25.60;;;;;;;;;;5030824;28;20512;-78
2022/03/26 04:27:03;;;;;;;32.87;24.20;;;;;;;;;;5031040;28;20584;-76
2022/03/26 04:29:30;;;;;;;35.43;24.57;;;;;;;;;;5030984;28;20569;-77
2022/03/26 04:31:57;;;;;;;36.87;25.87;;;;;;;;;;5031119;28;20500;-77
2022/03/26 04:34:24;;;;;;;33.67;24.37;;;;;;;;;;5030231;28;20478;-77
2022/03/26 04:36:51;;;;;;;34.83;24.87;;;;;;;;;;5031099;28;20446;-76
2022/03/26 04:39:19;;;;;;;43.00;27.10;;;;;;;;;;5030770;28;20435;-78
2022/03/26 04:41:47;;;;;;;37.43;26.67;;;;;;;;;;5030876;28;20451;-77
2022/03/26 04:44:14;;;;;;;38.07;25.47;;;;;;;;;;5030452;28;20509;-78
2022/03/26 04:46:41;;;;;;;39.30;25.90;;;;;;;;;;5030683;28;20452;-78
2022/03/26 04:49:08;;;;;;;40.80;27.03;;;;;;;;;;5031163;28;20814;-78
2022/03/26 04:51:35;;;;;;;34.77;25.97;;;;;;;;;;5031039;28;20856;-77
2022/03/26 04:54:02;;;;;;;36.80;26.60;;;;;;;;;;5030403;28;20470;-78
2022/03/26 04:56:31;;;;;;;38.97;27.37;;;;;;;;;;5030820;28;20529;-77
2022/03/26 04:58:58;;;;;;;36.47;25.87;;;;;;;;;;5030553;28;20483;-76
2022/03/26 05:01:25;;;;;;;39.50;27.20;;;;;;;;;;5030742;28;20528;-76
2022/03/26 05:03:52;;;;;;;35.33;25.70;;;;;;;;;;5030736;28;20469;-77
2022/03/26 05:06:19;;;;;;;36.13;26.20;;;;;;;;;;5028180;28;20824;-77
2022/03/26 05:08:48;;;;;;;35.43;26.07;;;;;;;;;;5029467;28;20462;-77
2022/03/26 05:11:15;;;;;;;37.60;27.70;;;;;;;;;;5031223;28;20481;-77
2022/03/26 05:13:43;;;;;;;35.17;26.07;;;;;;;;;;5030299;28;20526;-77
2022/03/26 05:16:10;;;;;;;38.77;27.17;;;;;;;;;;5028740;28;20454;-77
2022/03/26 05:18:38;;;;;;;37.80;26.43;;;;;;;;;;5027900;28;20445;-77
2022/03/26 05:21:07;;;;;;;34.10;27.53;;;;;;;;;;5030729;28;20440;-77
2022/03/26 05:23:34;;;;;;;37.10;25.30;;;;;;;;;;5029969;28;20500;-77
2022/03/26 05:26:02;;;;;;;42.83;27.60;;;;;;;;;;5030603;28;20885;-79
2022/03/26 05:28:29;;;;;;;35.37;25.90;;;;;;;;;;5030522;28;20441;-78
2022/03/26 05:30:57;;;;;;;34.43;26.70;;;;;;;;;;5031977;28;20501;-77
2022/03/26 05:33:24;;;;;;;36.13;25.80;;;;;;;;;;5033763;28;20477;-77
2022/03/26 05:35:52;;;;;;;34.70;25.83;;;;;;;;;;5033876;28;21100;-77
2022/03/26 05:38:19;;;;;;;36.53;26.23;;;;;;;;;;5034099;28;20450;-77
2022/03/26 05:40:46;;;;;;;35.40;26.73;;;;;;;;;;5033889;28;20499;-79
2022/03/26 05:43:13;;;;;;;31.73;26.53;;;;;;;;;;5034309;28;20556;-77
2022/03/26 05:45:40;;;;;;;36.10;27.40;;;;;;;;;;5035713;28;20787;-76
2022/03/26 05:48:09;;;;;;;38.70;27.77;;;;;;;;;;5034108;28;20477;-77
2022/03/26 05:50:36;;;;;;;36.23;26.70;;;;;;;;;;5033828;28;20485;-77
2022/03/26 05:53:03;;;;;;;33.73;25.80;;;;;;;;;;5035372;28;20464;-77
2022/03/26 05:55:30;;;;;;;33.67;26.27;;;;;;;;;;5037355;28;20445;-78
2022/03/26 05:57:57;;;;;;;37.60;26.57;;;;;;;;;;5037739;28;20437;-76
2022/03/26 06:00:24;;;;;;;35.10;27.30;;;;;;;;;;5036779;28;20441;-78
2022/03/26 06:02:51;;;;;;;37.13;26.87;;;;;;;;;;5036672;28;20460;-78
2022/03/26 06:05:20;;;;;;;36.50;26.10;;;;;;;;;;5033463;28;20491;-78
2022/03/26 06:07:47;;;;;;;39.53;28.37;;;;;;;;;;5033403;28;20500;-77
2022/03/26 06:10:14;;;;;;;40.90;28.30;;;;;;;;;;5033006;28;20480;-77
2022/03/26 06:12:41;;;;;;;39.57;28.60;;;;;;;;;;5033585;28;20511;-79
2022/03/26 06:15:09;;;;;;;34.53;25.53;;;;;;;;;;5033573;28;20507;-77
2022/03/26 06:17:36;;;;;;;36.00;27.13;;;;;;;;;;5033488;28;20991;-79
2022/03/26 06:20:04;;;;;;;37.80;25.83;;;;;;;;;;5033591;28;20446;-78
2022/03/26 06:22:32;;;;;;;36.77;27.00;;;;;;;;;;5032730;28;21018;-77
2022/03/26 06:25:00;;;;;;;35.93;26.70;;;;;;;;;;5033733;28;20446;-79
2022/03/26 06:27:27;;;;;;;39.67;28.77;;;;;;;;;;5033450;28;20453;-77
2022/03/26 06:29:54;;;;;;;38.40;29.13;;;;;;;;;;5032886;28;20558;-77
2022/03/26 06:32:21;;;;;;;39.90;28.43;;;;;;;;;;5032897;28;20450;-76
2022/03/26 06:34:48;;;;;;;39.37;27.90;;;;;;;;;;5034211;28;20509;-78
2022/03/26 06:37:15;;;;;;;41.30;28.67;;;;;;;;;;5030570;28;20457;-78
2022/03/26 06:39:44;;;;;;;42.77;28.70;;;;;;;;;;5032775;28;20439;-78
2022/03/26 06:42:11;;;;;;;41.93;28.10;;;;;;;;;;5032313;28;20946;-77
2022/03/26 06:44:38;;;;;;;38.63;27.80;;;;;;;;;;5034458;28;20776;-77
2022/03/26 06:47:05;;;;;;;37.20;27.37;;;;;;;;;;5034187;28;20799;-77
2022/03/26 06:49:32;;;;;;;40.73;27.83;;;;;;;;;;5033644;28;20448;-78
2022/03/26 06:51:59;;;;;;;39.07;28.90;;;;;;;;;;5034131;28;20490;-77
2022/03/26 06:54:27;;;;;;;41.20;28.87;;;;;;;;;;5033237;28;20574;-78
2022/03/26 06:56:56;;;;;;;40.33;29.53;;;;;;;;;;5034264;28;20930;-78
2022/03/26 06:59:23;;;;;;;41.23;30.30;;;;;;;;;;5032406;28;20472;-77
2022/03/26 07:01:50;;;;;;;42.40;29.80;;;;;;;;;;5032734;28;20438;-77
2022/03/26 07:04:18;;;;;;;37.80;27.43;;;;;;;;;;5032058;28;20544;-77
2022/03/26 07:06:45;;;;;;;37.13;27.47;;;;;;;;;;5032574;28;20961;-78
2022/03/26 07:09:12;;;;;;;33.60;25.50;;;;;;;;;;5032204;28;20934;-76
2022/03/26 07:11:39;;;;;;;34.03;26.43;;;;;;;;;;5032451;28;20536;-79
2022/03/26 07:14:07;;;;;;;36.60;26.60;;;;;;;;;;5032498;28;21005;-78
2022/03/26 07:16:34;;;;;;;37.40;25.07;;;;;;;;;;5032196;28;20438;-78
2022/03/26 07:19:01;;;;;;;38.07;27.17;;;;;;;;;;5032145;28;20493;-79
2022/03/26 07:21:28;;;;;;;40.43;27.33;;;;;;;;;;5033038;28;20443;-78
2022/03/26 07:23:55;;;;;;;36.07;27.23;;;;;;;;;;5032398;28;20461;-77
2022/03/26 07:26:23;;;;;;;35.50;26.20;;;;;;;;;;5035186;28;20817;-77
2022/03/26 07:28:50;;;;;;;35.87;26.77;;;;;;;;;;5034267;28;20816;-78
2022/03/26 07:31:19;;;;;;;36.23;26.80;;;;;;;;;;5032952;28;20477;-78
2022/03/26 07:33:46;;;;;;;33.57;26.13;;;;;;;;;;5032635;28;20469;-78
2022/03/26 07:36:13;;;;;;;39.67;27.40;;;;;;;;;;5034144;28;20489;-77
2022/03/26 07:38:40;;;;;;;33.40;25.80;;;;;;;;;;5033349;28;20446;-78
2022/03/26 07:41:08;;;;;;;38.63;28.10;;;;;;;;;;5033208;28;20500;-77
2022/03/26 07:43:35;;;;;;;38.23;27.67;;;;;;;;;;5033055;28;20546;-78
2022/03/26 07:46:02;;;;;;;36.03;26.20;;;;;;;;;;5033608;28;20520;-78
2022/03/26 07:48:30;;;;;;;34.23;27.20;;;;;;;;;;5035298;28;20462;-79
2022/03/26 07:50:57;;;;;;;35.37;27.47;;;;;;;;;;5033606;28;20478;-78
2022/03/26 07:53:25;;;;;;;38.70;27.17;;;;;;;;;;5033237;28;20561;-77
2022/03/26 07:55:53;;;;;;;34.10;26.47;;;;;;;;;;5032256;28;20442;-77
2022/03/26 07:58:20;;;;;;;36.10;26.13;;;;;;;;;;5032535;28;20525;-78
2022/03/26 08:00:48;;;;;;;37.60;27.27;;;;;;;;;;5031905;28;20447;-78
2022/03/26 08:03:15;;;;;;;41.47;28.30;;;;;;;;;;5031427;28;20528;-78
2022/03/26 08:05:44;;;;;;;35.60;27.10;;;;;;;;;;5031964;28;20450;-79
2022/03/26 08:08:11;;;;;;;39.33;28.27;;;;;;;;;;5031528;28;20450;-79
2022/03/26 08:10:38;;;;;;;37.90;28.27;;;;;;;;;;5031608;28;21017;-77
2022/03/26 08:13:05;;;;;;;38.40;28.37;;;;;;;;;;5031032;28;20516;-78
2022/03/26 08:15:32;;;;;;;38.53;28.27;;;;;;;;;;5032055;28;20943;-78
2022/03/26 08:18:02;;;;;;;38.93;28.13;;;;;;;;;;5032181;28;20449;-78
2022/03/26 08:20:29;;;;;;;36.80;28.00;;;;;;;;;;5032126;28;20493;-77
2022/03/26 08:22:58;;;;;;;35.60;27.53;;;;;;;;;;5032753;28;20467;-78
2022/03/26 08:28:10;;;;;;;35.87;26.20;;;;;;;;;;5033415;28;20422;-79
2022/03/26 08:30:38;;;;;;;31.40;26.67;;;;;;;;;;5032933;28;20985;-78
2022/03/26 08:33:06;;;;;;;34.07;26.93;;;;;;;;;;5031846;28;20528;-78
2022/03/26 08:35:33;;;;;;;42.43;27.03;;;;;;;;;;5032266;28;20450;-80
2022/03/26 08:38:02;;;;;;;33.27;26.87;;;;;;;;;;5032637;28;20989;-77
2022/03/26 08:40:29;;;;;;;41.40;28.73;;;;;;;;;;5032008;28;20449;-77
2022/03/26 08:42:58;;;;;;;35.50;27.10;;;;;;;;;;5031550;28;20478;-78
2022/03/26 08:45:25;;;;;;;36.00;27.40;;;;;;;;;;5032224;28;20596;-78
2022/03/26 08:47:52;;;;;;;36.60;28.10;;;;;;;;;;5032239;28;20450;-77
2022/03/26 08:50:20;;;;;;;33.37;27.53;;;;;;;;;;5032366;28;20434;-80
2022/03/26 08:52:47;;;;;;;35.77;27.77;;;;;;;;;;5031742;28;20471;-78
2022/03/26 08:55:16;;;;;;;35.50;26.60;;;;;;;;;;5033023;28;20519;-79
2022/03/26 08:57:43;;;;;;;33.50;27.10;;;;;;;;;;5032772;28;20446;-79
2022/03/26 09:00:11;;;;;;;38.03;28.20;;;;;;;;;;5032195;28;20515;-79
2022/03/26 09:02:38;;;;;;;36.30;26.20;;;;;;;;;;5032247;28;20537;-78
2022/03/26 09:05:06;;;;;;;33.30;27.67;;;;;;;;;;5033163;28;20481;-78
2022/03/26 09:07:33;;;;;;;44.27;28.73;;;;;;;;;;5035967;28;20446;-79
2022/03/26 09:10:00;;;;;;;33.33;27.13;;;;;;;;;;5036016;28;20808;-79
2022/03/26 09:12:28;;;;;;;39.17;28.47;;;;;;;;;;5035452;28;20880;-79
2022/03/26 09:14:55;;;;;;;32.67;27.17;;;;;;;;;;5035556;28;20449;-78
2022/03/26 09:17:22;;;;;;;33.20;27.10;;;;;;;;;;5035921;28;20450;-78
2022/03/26 09:19:49;;;;;;;33.60;27.07;;;;;;;;;;5035994;28;20508;-78
2022/03/26 09:22:16;;;;;;;35.53;27.20;;;;;;;;;;5035942;28;20430;-80
2022/03/26 09:24:44;;;;;;;36.10;29.57;;;;;;;;;;5034724;28;20534;-78
2022/03/26 09:27:11;;;;;;;35.13;27.20;;;;;;;;;;5038615;28;20975;-78
2022/03/26 09:29:39;;;;;;;34.90;27.23;;;;;;;;;;5037164;28;20484;-78
2022/03/26 09:32:07;;;;;;;34.53;28.30;;;;;;;;;;5036968;28;20498;-79
2022/03/26 09:34:34;;;;;;;36.03;26.90;;;;;;;;;;5038153;28;20474;-78
2022/03/26 09:37:01;;;;;;;36.63;28.80;;;;;;;;;;5042738;28;20464;-77
2022/03/26 09:39:28;;;;;;;33.53;28.00;;;;;;;;;;5046318;28;20446;-77
2022/03/26 09:41:55;;;;;;;36.03;28.20;;;;;;;;;;5049440;28;20471;-78
2022/03/26 09:44:23;;;;;;;33.90;28.03;;;;;;;;;;5051471;28;20553;-77
2022/03/26 09:46:51;;;;;;;36.40;29.67;;;;;;;;;;5049679;28;20454;-78
2022/03/26 09:49:18;;;;;;;38.07;29.63;;;;;;;;;;5046193;28;20453;-78
2022/03/26 09:51:45;;;;;;;38.03;29.00;;;;;;;;;;5041430;28;20489;-77
2022/03/26 09:54:15;;;;;;;37.10;30.07;;;;;;;;;;5037026;28;20462;-78
2022/03/26 09:56:42;;;;;;;38.20;28.87;;;;;;;;;;5028723;28;20487;-77
2022/03/26 09:59:09;;;;;;;36.97;29.40;;;;;;;;;;5018113;28;20935;-77
2022/03/26 10:01:36;;;;;;;37.20;30.40;;;;;;;;;;5033498;28;20939;-78
2022/03/26 10:04:15;;;;;;;36.50;28.67;;;;;;;;;;5027924;28;20479;-78
2022/03/26 10:06:47;;;;;;;40.30;30.93;;;;;;;;;;5034426;28;20438;-78
2022/03/26 10:09:14;;;;;;;37.00;30.83;;;;;;;;;;5036295;28;20495;-77
2022/03/26 10:11:42;;;;;;;40.33;30.00;;;;;;;;;;5034422;28;20466;-79
2022/03/26 10:14:09;;;;;;;33.00;29.40;;;;;;;;;;5034043;28;20470;-79
2022/03/26 10:16:36;;;;;;;36.77;29.37;;;;;;;;;;5035365;28;20503;-77
2022/03/26 10:19:03;;;;;;;40.50;28.27;;;;;;;;;;5034190;28;20922;-78
2022/03/26 10:21:32;;;;;;;42.53;28.53;;;;;;;;;;5034597;28;20529;-79
2022/03/26 10:23:59;;;;;;;35.33;29.60;;;;;;;;;;5034042;28;20466;-78
2022/03/26 10:26:28;;;;;;;43.33;28.77;;;;;;;;;;5034811;28;20500;-79
2022/03/26 10:28:56;;;;;;;35.73;29.37;;;;;;;;;;5035233;28;20451;-79
2022/03/26 10:34:09;;;;;;;40.83;30.20;;;;;;;;;;5031706;28;20504;-76
2022/03/26 10:36:38;;;;;;;36.27;29.67;;;;;;;;;;5031093;28;20574;-77
2022/03/26 10:39:06;;;;;;;38.73;30.03;;;;;;;;;;5028512;28;20940;-76
2022/03/26 10:41:34;;;;;;;36.03;30.90;;;;;;;;;;5031611;28;20470;-76
2022/03/26 10:44:09;;;;;;;35.77;29.77;;;;;;;;;;5030116;28;20462;-76
2022/03/26 10:46:42;;;;;;;39.17;30.43;;;;;;;;;;5027580;28;20430;-77
2022/03/26 10:49:09;;;;;;;36.17;29.53;;;;;;;;;;5031498;28;20931;-77
2022/03/26 10:51:37;;;;;;;37.57;30.70;;;;;;;;;;5032318;28;21009;-77
2022/03/26 10:54:10;;;;;;;38.90;31.87;;;;;;;;;;5032029;28;20469;-76
2022/03/26 10:56:38;;;;;;;37.40;31.60;;;;;;;;;;5032322;28;20549;-77
2022/03/26 10:59:05;;;;;;;34.23;28.90;;;;;;;;;;5032713;28;21017;-76
2022/03/26 11:01:32;;;;;;;40.17;30.60;;;;;;;;;;5032697;28;20439;-77
2022/03/26 11:03:59;;;;;;;35.20;29.33;;;;;;;;;;5033039;28;20466;-78
2022/03/26 11:06:27;;;;;;;35.50;28.63;;;;;;;;;;5029016;28;20447;-77
2022/03/26 11:08:59;;;;;;;35.63;29.40;;;;;;;;;;5033703;28;20832;-77
2022/03/26 11:11:28;;;;;;;34.27;29.10;;;;;;;;;;5035172;28;20544;-79
2022/03/26 11:13:57;;;;;;;34.63;28.90;;;;;;;;;;5032750;28;20490;-77
2022/03/26 11:16:31;;;;;;;35.50;29.93;;;;;;;;;;5032631;28;20926;-77
2022/03/26 11:19:02;;;;;;;35.13;28.97;;;;;;;;;;5034059;28;20457;-78
2022/03/26 11:21:34;;;;;;;33.67;26.93;;;;;;;;;;5035539;28;20446;-78
2022/03/26 11:24:16;;;;;;;31.27;27.50;;;;;;;;;;5032045;28;20523;-78
2022/03/26 11:26:49;;;;;;;35.03;28.83;;;;;;;;;;5032873;28;20825;-77
2022/03/26 11:29:43;;;;;;;37.30;29.40;;;;;;;;;;5032546;28;20451;-77
2022/03/26 11:32:16;;;;;;;34.50;28.70;;;;;;;;;;5033013;28;20458;-79
2022/03/26 11:34:43;;;;;;;33.67;26.77;;;;;;;;;;5031546;28;20482;-77
2022/03/26 11:37:11;;;;;;;33.50;27.63;;;;;;;;;;5030670;28;20458;-76
2022/03/26 11:39:44;;;;;;;33.67;27.03;;;;;;;;;;5030264;28;20829;-77
2022/03/26 11:42:13;;;;;;;30.17;26.07;;;;;;;;;;5030388;28;20441;-76
2022/03/26 11:44:45;;;;;;;30.80;25.80;;;;;;;;;;5030817;28;20463;-76
2022/03/26 11:53:08;;;;;;;26.20;23.40;;;;;;;;;;5027805;28;21073;-76
2022/03/26 11:55:42;;;;;;;24.17;21.67;;;;;;;;;;5031536;28;20533;-75
2022/03/26 11:58:20;;;;;;;23.20;20.73;;;;;;;;;;5031712;28;20453;-78
2022/03/26 12:00:54;;;;;;;24.53;20.43;;;;;;;;;;5031568;28;20447;-79
2022/03/26 12:03:22;;;;;;;25.70;22.60;;;;;;;;;;5031238;28;20458;-76
2022/03/26 12:08:39;;;;;;;24.00;21.50;;;;;;;;;;5018319;28;21055;-77
2022/03/26 12:11:06;;;;;;;24.27;21.60;;;;;;;;;;5032039;28;20502;-77
2022/03/26 12:13:35;;;;;;;23.80;20.00;;;;;;;;;;5027639;28;20490;-77
2022/03/26 12:16:04;;;;;;;28.80;20.63;;;;;;;;;;5031523;28;20790;-77
2022/03/26 12:18:34;;;;;;;24.63;19.33;;;;;;;;;;5031584;28;20526;-75
2022/03/26 12:21:08;;;;;;;24.23;21.30;;;;;;;;;;5022131;28;20513;-77
2022/03/26 12:23:36;;;;;;;21.97;19.57;;;;;;;;;;5031092;28;20462;-77
2022/03/26 12:26:05;;;;;;;22.67;20.37;;;;;;;;;;5031526;28;20542;-76
2022/03/26 12:28:33;;;;;;;22.20;19.93;;;;;;;;;;5031346;28;20883;-76
2022/03/26 12:31:04;;;;;;;25.43;20.90;;;;;;;;;;5031470;28;20446;-75
2022/03/26 12:33:39;;;;;;;23.07;19.27;;;;;;;;;;5029936;28;20494;-76
2022/03/26 12:36:06;;;;;;;23.47;21.07;;;;;;;;;;5032736;28;20511;-76
2022/03/26 12:38:33;;;;;;;22.20;19.80;;;;;;;;;;5041849;28;20854;-77
2022/03/26 12:41:02;;;;;;;24.00;21.50;;;;;;;;;;5043567;28;20446;-77
2022/03/26 12:43:29;;;;;;;24.37;21.63;;;;;;;;;;5045072;28;20477;-77
2022/03/26 12:45:57;;;;;;;22.30;19.87;;;;;;;;;;5045983;28;20921;-76
2022/03/26 12:48:28;;;;;;;24.87;19.73;;;;;;;;;;5036766;28;20447;-77
2022/03/26 12:50:55;;;;;;;22.17;19.87;;;;;;;;;;5034311;28;20930;-76
2022/03/26 12:53:22;;;;;;;21.43;19.13;;;;;;;;;;5034570;28;20486;-77
2022/03/26 12:55:57;;;;;;;21.23;18.70;;;;;;;;;;5035399;28;20446;-76
2022/03/26 13:01:09;;;;;;;22.40;19.97;;;;;;;;;;5035241;28;21096;-76
2022/03/26 13:03:38;;;;;;;20.40;18.30;;;;;;;;;;5034989;28;20466;-76
2022/03/26 13:06:05;;;;;;;19.90;17.50;;;;;;;;;;5043283;28;20493;-76
2022/03/26 13:08:32;;;;;;;20.77;18.50;;;;;;;;;;5059078;28;20677;-75
2022/03/26 13:11:04;;;;;;;18.83;16.80;;;;;;;;;;5054427;28;20836;-77
2022/03/26 13:13:32;;;;;;;20.60;18.03;;;;;;;;;;5048930;28;20478;-76
2022/03/26 13:16:03;;;;;;;21.13;18.67;;;;;;;;;;5037860;28;21123;-77
2022/03/26 13:18:30;;;;;;;21.40;18.53;;;;;;;;;;5038086;28;20441;-77
2022/03/26 13:21:05;;;;;;;20.77;17.27;;;;;;;;;;5036970;28;20459;-78
2022/03/26 13:23:32;;;;;;;23.63;17.17;;;;;;;;;;5035575;28;20468;-77
2022/03/26 13:25:59;;;;;;;21.90;18.30;;;;;;;;;;5035372;28;20450;-78
2022/03/26 13:28:34;;;;;;;23.50;18.27;;;;;;;;;;5035460;28;20442;-77
2022/03/26 13:31:01;;;;;;;21.03;17.60;;;;;;;;;;5034820;28;20960;-77
2022/03/26 13:33:29;;;;;;;19.13;17.23;;;;;;;;;;5034556;28;20500;-77
2022/03/26 13:35:57;;;;;;;18.87;16.87;;;;;;;;;;5034305;28;20468;-78
2022/03/26 13:38:28;;;;;;;18.63;16.63;;;;;;;;;;5034491;28;20442;-77
2022/03/26 13:40:55;;;;;;;19.20;17.20;;;;;;;;;;5027868;28;20496;-77
2022/03/26 13:43:22;;;;;;;19.97;16.63;;;;;;;;;;5030224;28;20531;-76
2022/03/26 13:45:49;;;;;;;19.53;17.47;;;;;;;;;;5031551;28;20442;-76
2022/03/26 13:48:16;;;;;;;20.57;17.30;;;;;;;;;;5033300;28;20496;-77
2022/03/26 13:50:43;;;;;;;20.97;16.30;;;;;;;;;;5033568;28;20785;-77
2022/03/26 13:53:17;;;;;;;20.27;16.90;;;;;;;;;;5033540;28;20536;-77
2022/03/26 13:55:49;;;;;;;22.50;17.47;;;;;;;;;;5029445;28;20567;-77
2022/03/26 13:58:19;;;;;;;19.93;16.90;;;;;;;;;;5034168;28;20447;-78
2022/03/26 14:00:46;;;;;;;17.90;16.10;;;;;;;;;;5034434;28;20447;-77
2022/03/26 14:03:13;;;;;;;21.83;16.00;;;;;;;;;;5034211;28;20469;-77
2022/03/26 14:05:41;;;;;;;19.77;17.77;;;;;;;;;;5034202;28;20442;-77
2022/03/26 14:08:09;;;;;;;18.17;16.30;;;;;;;;;;5034635;28;20950;-77
2022/03/26 14:10:36;;;;;;;18.43;16.30;;;;;;;;;;5029361;28;20478;-77
2022/03/26 14:13:07;;;;;;;18.90;16.10;;;;;;;;;;5033871;28;20482;-77
2022/03/26 14:15:34;;;;;;;18.00;16.10;;;;;;;;;;5033524;28;20466;-77
2022/03/26 14:18:02;;;;;;;17.90;15.93;;;;;;;;;;5033943;28;20883;-75
2022/03/26 14:20:30;;;;;;;18.73;16.80;;;;;;;;;;5033891;28;20443;-76
2022/03/26 14:22:58;;;;;;;17.83;16.03;;;;;;;;;;5033379;28;20549;-77
2022/03/26 14:25:26;;;;;;;18.07;16.17;;;;;;;;;;5033631;28;20497;-77
2022/03/26 14:27:53;;;;;;;20.43;16.87;;;;;;;;;;5033283;28;20927;-76
2022/03/26 14:30:21;;;;;;;17.77;15.60;;;;;;;;;;5033399;28;20434;-76
2022/03/26 14:32:48;;;;;;;17.43;15.73;;;;;;;;;;5033335;28;20482;-77
2022/03/26 14:35:15;;;;;;;17.93;16.13;;;;;;;;;;5033321;28;20423;-76
2022/03/26 14:37:42;;;;;;;19.77;17.73;;;;;;;;;;5033600;28;20588;-77